createdAt,value
2018-09-04T00:00:06.142Z,79.95
2018-09-04T00:02:35.921Z,79.36
2018-09-04T00:05:05.868Z,79.35
2018-09-04T00:07:34.713Z,78.94
2018-09-04T00:10:03.739Z,79.92
2018-09-04T00:12:33.049Z,79.75
2018-09-04T00:15:02.648Z,79.43
2018-09-04T00:17:31.498Z,79.60
2018-09-04T00:20:00.283Z,79.16
2018-09-04T00:22:29.822Z,79.13
2018-09-04T00:24:58.627Z,79.23
2018-09-04T00:27:28.300Z,79.72
2018-09-04T00:29:57.898Z,79.62
2018-09-04T00:32:27.455Z,79.54
2018-09-04T00:34:56.827Z,79.45
2018-09-04T00:37:26.255Z,79.39
2018-09-04T00:39:55.905Z,79.67
2018-09-04T00:42:24.719Z,79.00
2018-09-04T00:44:53.969Z,79.75
2018-09-04T00:47:22.813Z,80.19
2018-09-04T00:49:51.560Z,79.58
2018-09-04T00:52:20.683Z,80.07
2018-09-04T00:54:49.833Z,80.44
2018-09-04T00:57:19.564Z,80.19
2018-09-04T00:59:48.407Z,79.98
2018-09-04T01:02:17.383Z,80.21
2018-09-04T01:04:48.358Z,80.15
2018-09-04T01:07:17.651Z,79.37
2018-09-04T01:09:46.480Z,79.15
2018-09-04T01:12:16.207Z,79.55
2018-09-04T01:14:44.970Z,79.59
2018-09-04T01:17:13.796Z,79.54
2018-09-04T01:19:42.634Z,79.03
2018-09-04T01:22:11.835Z,79.03
2018-09-04T01:24:40.651Z,79.23
2018-09-04T01:27:10.154Z,79.47
2018-09-04T01:29:39.684Z,79.29
2018-09-04T01:32:09.333Z,78.99
2018-09-04T01:34:38.839Z,79.46
2018-09-04T01:37:08.325Z,79.22
2018-09-04T01:39:37.640Z,79.68
2018-09-04T01:42:06.784Z,79.84
2018-09-04T01:44:37.518Z,79.32
2018-09-04T01:47:06.856Z,79.55
2018-09-04T01:49:37.301Z,79.24
2018-09-04T01:52:06.553Z,80.20
2018-09-04T01:54:35.562Z,79.96
2018-09-04T01:57:05.030Z,80.33
2018-09-04T01:59:33.787Z,80.25
2018-09-04T02:02:02.755Z,79.48
2018-09-04T02:04:32.050Z,79.85
2018-09-04T02:07:01.701Z,80.30
2018-09-04T02:09:31.250Z,80.71
2018-09-04T02:12:00.167Z,80.99
2018-09-04T02:14:28.907Z,80.95
2018-09-04T02:16:57.735Z,80.49
2018-09-04T02:19:26.555Z,80.82
2018-09-04T02:21:56.109Z,80.91
2018-09-04T02:24:24.893Z,81.28
2018-09-04T02:26:53.619Z,81.15
2018-09-04T02:29:23.733Z,81.39
2018-09-04T02:31:52.481Z,81.53
2018-09-04T02:34:21.945Z,81.35
2018-09-04T02:36:51.223Z,81.20
2018-09-04T02:39:20.988Z,80.88
2018-09-04T02:41:49.919Z,80.32
2018-09-04T02:44:19.016Z,80.57
2018-09-04T02:46:47.795Z,81.19
2018-09-04T02:49:16.795Z,81.12
2018-09-04T02:51:45.934Z,81.03
2018-09-04T02:54:14.965Z,81.20
2018-09-04T02:56:44.728Z,81.35
2018-09-04T02:59:14.088Z,80.94
2018-09-04T03:01:43.763Z,81.24
2018-09-04T03:04:12.640Z,81.05
2018-09-04T03:06:41.407Z,81.40
2018-09-04T03:09:11.115Z,81.11
2018-09-04T03:11:40.435Z,81.36
2018-09-04T03:14:09.195Z,81.32
2018-09-04T03:16:38.210Z,80.96
2018-09-04T03:19:07.634Z,80.81
2018-09-04T03:21:36.935Z,80.55
2018-09-04T03:24:07.431Z,80.53
2018-09-04T03:26:36.573Z,80.45
2018-09-04T03:29:06.347Z,80.24
2018-09-04T03:31:36.004Z,80.54
2018-09-04T03:34:05.786Z,80.66
2018-09-04T03:36:35.334Z,81.66
2018-09-04T03:39:05.405Z,81.91
2018-09-04T03:41:34.639Z,81.66
2018-09-04T03:44:03.544Z,81.49
2018-09-04T03:46:32.355Z,81.40
2018-09-04T03:49:01.292Z,81.77
2018-09-04T03:51:30.178Z,81.31
2018-09-04T03:53:59.071Z,81.23
2018-09-04T03:56:28.599Z,80.93
2018-09-04T03:58:57.807Z,81.69
2018-09-04T04:01:27.215Z,81.26
2018-09-04T04:03:56.623Z,81.03
2018-09-04T04:06:25.965Z,81.18
2018-09-04T04:08:54.702Z,80.76
2018-09-04T04:11:23.980Z,80.78
2018-09-04T04:13:52.796Z,80.52
2018-09-04T04:16:21.794Z,80.68
2018-09-04T04:18:50.754Z,80.38
2018-09-04T04:21:19.995Z,80.24
2018-09-04T04:23:49.840Z,79.85
2018-09-04T04:26:18.715Z,80.32
2018-09-04T04:28:47.812Z,80.40
2018-09-04T04:31:18.557Z,80.29
2018-09-04T04:33:48.611Z,80.40
2018-09-04T04:36:18.334Z,80.37
2018-09-04T04:38:48.469Z,80.24
2018-09-04T04:41:17.454Z,79.83
2018-09-04T04:43:46.741Z,79.92
2018-09-04T04:46:15.607Z,79.82
2018-09-04T04:48:44.396Z,79.70
2018-09-04T04:51:13.243Z,79.12
2018-09-04T04:53:42.582Z,79.63
2018-09-04T04:56:11.496Z,80.04
2018-09-04T04:58:41.289Z,80.27
2018-09-04T05:01:10.697Z,80.62
2018-09-04T05:03:40.421Z,79.48
2018-09-04T05:06:09.229Z,79.41
2018-09-04T05:08:38.409Z,79.78
2018-09-04T05:11:08.306Z,79.14
2018-09-04T05:13:38.336Z,79.36
2018-09-04T05:16:07.733Z,79.24
2018-09-04T05:18:37.083Z,79.62
2018-09-04T05:21:06.486Z,78.95
2018-09-04T05:23:36.422Z,78.95
2018-09-04T05:26:05.723Z,79.07
2018-09-04T05:28:35.659Z,78.53
2018-09-04T05:31:05.685Z,78.42
2018-09-04T05:33:38.284Z,78.49
2018-09-04T05:36:08.485Z,78.44
2018-09-04T05:38:39.808Z,78.87
2018-09-04T05:41:08.930Z,78.74
2018-09-04T05:43:53.585Z,78.34
2018-09-04T05:46:53.651Z,78.20
2018-09-04T05:49:26.512Z,78.11
2018-09-04T05:51:55.375Z,78.18
2018-09-04T05:54:24.273Z,78.02
2018-09-04T05:56:53.924Z,77.29
2018-09-04T05:59:22.865Z,77.56
2018-09-04T06:01:52.273Z,77.54
2018-09-04T06:04:21.747Z,77.05
2018-09-04T06:06:50.823Z,76.58
2018-09-04T06:09:20.914Z,76.83
2018-09-04T06:11:49.975Z,76.09
2018-09-04T06:14:18.968Z,76.41
2018-09-04T06:16:47.969Z,76.33
2018-09-04T06:19:16.812Z,76.40
2018-09-04T06:21:45.861Z,76.12
2018-09-04T06:24:15.464Z,75.97
2018-09-04T06:26:44.395Z,76.29
2018-09-04T06:29:13.238Z,76.64
2018-09-04T06:31:42.931Z,76.10
2018-09-04T06:34:12.521Z,76.01
2018-09-04T06:36:41.951Z,75.85
2018-09-04T06:39:11.807Z,75.10
2018-09-04T06:41:40.640Z,75.32
2018-09-04T06:44:09.434Z,74.78
2018-09-04T06:46:38.890Z,74.20
2018-09-04T06:49:08.232Z,74.61
2018-09-04T06:51:37.816Z,73.53
2018-09-04T06:54:07.172Z,73.61
2018-09-04T06:56:38.627Z,73.06
2018-09-04T06:59:08.493Z,73.22
2018-09-04T07:01:38.401Z,72.26
2018-09-04T07:04:07.743Z,73.22
2018-09-04T07:06:37.089Z,71.51
2018-09-04T07:09:08.779Z,71.87
2018-09-04T07:11:38.643Z,71.08
2018-09-04T07:14:08.100Z,70.56
2018-09-04T07:16:37.523Z,70.80
2018-09-04T07:19:07.547Z,69.75
2018-09-04T07:21:37.328Z,69.56
2018-09-04T07:24:07.015Z,69.61
2018-09-04T07:26:36.524Z,69.19
2018-09-04T07:29:05.671Z,68.10
2018-09-04T07:31:35.697Z,66.58
2018-09-04T07:34:05.747Z,66.36
2018-09-04T07:36:35.809Z,63.43
2018-09-04T07:39:07.616Z,62.27
2018-09-04T07:41:37.145Z,62.19
2018-09-04T07:44:06.579Z,62.65
2018-09-04T07:46:35.849Z,62.67
2018-09-04T07:49:05.246Z,61.74
2018-09-04T07:51:34.113Z,62.04
2018-09-04T07:54:02.924Z,62.35
2018-09-04T07:56:32.605Z,62.46
2018-09-04T07:59:02.311Z,60.87
2018-09-04T08:01:31.792Z,59.83
2018-09-04T08:04:00.572Z,58.75
2018-09-04T08:06:29.434Z,58.86
2018-09-04T08:08:58.231Z,57.16
2018-09-04T08:11:27.802Z,57.54
2018-09-04T08:13:56.554Z,58.23
2018-09-04T08:16:25.395Z,57.73
2018-09-04T08:18:54.106Z,57.84
2018-09-04T08:21:22.866Z,55.79
2018-09-04T08:23:52.203Z,56.56
2018-09-04T08:26:21.082Z,54.10
2018-09-04T08:28:49.984Z,55.35
2018-09-04T08:31:18.759Z,56.70
2018-09-04T08:33:48.572Z,55.73
2018-09-04T08:36:17.955Z,55.30
2018-09-04T08:38:49.400Z,55.24
2018-09-04T08:41:18.420Z,55.44
2018-09-04T08:43:47.555Z,54.07
2018-09-04T08:46:16.620Z,54.78
2018-09-04T08:48:45.379Z,54.59
2018-09-04T08:51:14.280Z,54.83
2018-09-04T08:53:43.826Z,54.34
2018-09-04T08:56:12.576Z,54.15
2018-09-04T08:58:42.296Z,55.67
2018-09-04T09:01:11.545Z,55.64
2018-09-04T09:03:40.864Z,54.91
2018-09-04T09:06:09.689Z,53.44
2018-09-04T09:08:38.514Z,52.81
2018-09-04T09:11:08.419Z,53.36
2018-09-04T09:13:37.664Z,52.34
2018-09-04T09:16:06.971Z,52.09
2018-09-04T09:18:36.238Z,52.78
2018-09-04T09:21:05.292Z,53.57
2018-09-04T09:23:35.072Z,53.21
2018-09-04T09:26:03.918Z,52.43
2018-09-04T09:29:03.243Z,51.94
2018-09-04T09:31:32.620Z,51.74
2018-09-04T09:34:02.046Z,51.49
2018-09-04T09:36:31.385Z,52.21
2018-09-04T09:39:00.603Z,49.65
2018-09-04T09:41:29.330Z,51.29
2018-09-04T09:43:58.083Z,49.55
2018-09-04T09:46:26.907Z,48.33
2018-09-04T09:48:55.660Z,49.03
2018-09-04T09:51:25.408Z,48.36
2018-09-04T09:53:54.204Z,47.87
2018-09-04T09:56:23.864Z,47.83
2018-09-04T09:58:53.221Z,46.70
2018-09-04T10:01:28.428Z,47.05
2018-09-04T10:04:01.920Z,45.89
2018-09-04T10:06:30.663Z,46.65
2018-09-04T10:08:59.445Z,45.58
2018-09-04T10:11:29.436Z,47.20
2018-09-04T10:13:58.385Z,46.28
2018-09-04T10:16:27.182Z,45.44
2018-09-04T10:18:56.092Z,47.22
2018-09-04T10:21:24.888Z,46.20
2018-09-04T10:23:54.210Z,45.60
2018-09-04T10:26:23.117Z,45.87
2018-09-04T10:28:51.933Z,45.91
2018-09-04T10:31:20.930Z,44.97
2018-09-04T10:33:50.748Z,45.49
2018-09-04T10:36:20.417Z,46.86
2018-09-04T10:38:49.813Z,45.92
2018-09-04T10:41:18.617Z,45.43
2018-09-04T10:43:47.536Z,46.09
2018-09-04T10:46:16.443Z,46.17
2018-09-04T10:48:45.732Z,45.88
2018-09-04T10:51:14.937Z,45.59
2018-09-04T10:53:43.703Z,45.13
2018-09-04T10:56:12.588Z,43.70
2018-09-04T10:58:42.005Z,45.13
2018-09-04T11:01:11.368Z,45.53
2018-09-04T11:03:40.244Z,44.58
2018-09-04T11:06:09.004Z,45.25
2018-09-04T11:08:38.184Z,45.16
2018-09-04T11:11:07.379Z,46.13
2018-09-04T11:13:36.604Z,45.05
2018-09-04T11:16:05.856Z,45.99
2018-09-04T11:18:34.743Z,44.16
2018-09-04T11:21:03.511Z,45.20
2018-09-04T11:23:33.022Z,45.32
2018-09-04T11:26:01.775Z,43.28
2018-09-04T11:28:30.789Z,44.50
2018-09-04T11:30:59.655Z,43.18
2018-09-04T11:33:29.271Z,43.30
2018-09-04T11:35:58.879Z,42.31
2018-09-04T11:38:28.467Z,43.10
2018-09-04T11:40:57.571Z,41.55
2018-09-04T11:46:10.100Z,42.04
2018-09-04T11:48:39.603Z,40.95
2018-09-04T11:51:10.891Z,40.81
2018-09-04T11:53:39.629Z,40.93
2018-09-04T11:56:08.566Z,41.06
2018-09-04T11:58:38.114Z,40.31
2018-09-04T12:01:11.217Z,40.46
2018-09-04T12:03:40.086Z,40.01
2018-09-04T12:06:08.909Z,41.56
2018-09-04T12:08:38.184Z,41.27
2018-09-04T12:11:07.552Z,40.47
2018-09-04T12:13:36.700Z,41.05
2018-09-04T12:16:05.925Z,39.51
2018-09-04T12:18:34.770Z,40.09
2018-09-04T12:21:08.500Z,40.98
2018-09-04T12:23:38.238Z,39.13
2018-09-04T12:26:10.070Z,40.47
2018-09-04T12:28:38.903Z,38.87
2018-09-04T12:31:08.645Z,40.69
2018-09-04T12:33:38.427Z,39.48
2018-09-04T12:36:08.359Z,37.29
2018-09-04T12:38:40.018Z,37.67
2018-09-04T12:41:14.677Z,37.49
2018-09-04T12:43:44.354Z,37.55
2018-09-04T12:46:13.167Z,36.64
2018-09-04T12:48:48.765Z,36.37
2018-09-04T12:51:17.655Z,36.36
2018-09-04T12:53:46.756Z,37.50
2018-09-04T12:56:15.925Z,38.10
2018-09-04T12:58:45.279Z,37.25
2018-09-04T13:01:15.171Z,37.51
2018-09-04T13:03:44.008Z,38.44
2018-09-04T13:06:12.813Z,37.24
2018-09-04T13:08:42.272Z,38.13
2018-09-04T13:11:11.787Z,38.66
2018-09-04T13:13:40.779Z,37.97
2018-09-04T13:16:09.685Z,38.83
2018-09-04T13:18:38.686Z,38.78
2018-09-04T13:21:08.393Z,37.81
2018-09-04T13:23:38.211Z,40.25
2018-09-04T13:26:07.536Z,39.34
2018-09-04T13:28:37.504Z,39.45
2018-09-04T13:31:06.864Z,39.07
2018-09-04T13:33:36.818Z,38.96
2018-09-04T13:36:06.451Z,38.99
2018-09-04T13:38:36.716Z,38.47
2018-09-04T13:41:08.838Z,38.97
2018-09-04T13:43:39.303Z,38.77
2018-09-04T13:46:08.384Z,39.64
2018-09-04T13:48:37.748Z,40.26
2018-09-04T13:51:07.194Z,40.73
2018-09-04T13:53:36.334Z,39.40
2018-09-04T13:56:05.718Z,38.89
2018-09-04T13:58:35.438Z,40.08
2018-09-04T14:01:04.837Z,39.56
2018-09-04T14:03:33.689Z,39.14
2018-09-04T14:06:02.541Z,39.78
2018-09-04T14:08:32.131Z,40.27
2018-09-04T14:11:00.967Z,40.22
2018-09-04T14:13:29.813Z,39.43
2018-09-04T14:16:01.248Z,39.28
2018-09-04T14:18:30.023Z,39.88
2018-09-04T14:20:58.824Z,39.75
2018-09-04T14:23:28.124Z,39.41
2018-09-04T14:25:56.892Z,39.97
2018-09-04T14:28:41.491Z,39.07
2018-09-04T14:30:54.685Z,39.40
2018-09-04T14:33:23.543Z,39.28
2018-09-04T14:35:52.829Z,38.98
2018-09-04T14:38:22.195Z,39.22
2018-09-04T14:40:51.771Z,39.80
2018-09-04T14:43:22.151Z,38.74
2018-09-04T14:45:53.845Z,39.25
2018-09-04T14:49:31.132Z,40.17
2018-09-04T14:52:00.014Z,40.11
2018-09-04T14:54:28.994Z,39.31
2018-09-04T14:56:58.503Z,39.65
2018-09-04T14:59:28.867Z,39.87
2018-09-04T15:01:58.307Z,39.82
2018-09-04T15:04:27.668Z,40.05
2018-09-04T15:06:56.440Z,40.86
2018-09-04T15:09:25.879Z,41.26
2018-09-04T15:11:54.651Z,41.68
2018-09-04T15:14:24.848Z,41.15
2018-09-04T15:16:55.655Z,41.14
2018-09-04T15:19:24.478Z,40.99
2018-09-04T15:21:53.274Z,41.40
2018-09-04T15:24:22.821Z,42.61
2018-09-04T15:26:51.636Z,42.79
2018-09-04T15:29:20.763Z,42.43
2018-09-04T15:31:49.962Z,42.16
2018-09-04T15:34:19.722Z,41.87
2018-09-04T15:36:50.578Z,43.38
2018-09-04T15:39:19.519Z,42.47
2018-09-04T15:41:48.565Z,43.72
2018-09-04T15:44:17.371Z,42.97
2018-09-04T15:46:46.257Z,43.83
2018-09-04T15:49:20.433Z,41.96
2018-09-04T15:51:49.492Z,40.16
2018-09-04T15:54:18.560Z,42.47
2018-09-04T15:56:47.623Z,40.91
2018-09-04T15:59:17.123Z,40.59
2018-09-04T16:01:46.567Z,42.12
2018-09-04T16:04:15.376Z,42.19
2018-09-04T16:06:44.196Z,39.05
2018-09-04T16:09:13.538Z,40.12
2018-09-04T16:11:42.410Z,40.28
2018-09-04T16:14:11.186Z,41.59
2018-09-04T16:16:41.475Z,39.96
2018-09-04T16:19:10.329Z,41.70
2018-09-04T16:21:53.810Z,41.01
2018-09-04T16:24:23.017Z,41.34
2018-09-04T16:26:51.829Z,41.47
2018-09-04T16:29:21.623Z,41.66
2018-09-04T16:31:50.630Z,41.15
2018-09-04T16:34:20.450Z,41.54
2018-09-04T16:36:50.883Z,40.94
2018-09-04T16:39:19.833Z,42.33
2018-09-04T16:41:48.884Z,43.26
2018-09-04T16:44:17.925Z,44.09
2018-09-04T16:46:46.946Z,42.77
2018-09-04T16:49:15.856Z,44.42
2018-09-04T16:51:45.236Z,45.31
2018-09-04T16:54:14.012Z,45.31
2018-09-04T16:56:42.871Z,46.00
2018-09-04T16:59:12.200Z,47.15
2018-09-04T17:01:41.667Z,47.69
2018-09-04T17:04:10.508Z,48.12
2018-09-04T17:06:39.319Z,48.36
2018-09-04T17:09:08.772Z,47.84
2018-09-04T17:11:38.396Z,47.79
2018-09-04T17:14:08.093Z,48.76
2018-09-04T17:16:37.292Z,49.15
2018-09-04T17:19:06.624Z,50.47
2018-09-04T17:21:35.848Z,51.04
2018-09-04T17:24:06.321Z,52.05
2018-09-04T17:26:35.472Z,51.35
2018-09-04T17:29:04.890Z,52.75
2018-09-04T17:31:34.111Z,52.72
2018-09-04T17:34:03.527Z,53.22
2018-09-04T17:36:32.878Z,54.81
2018-09-04T17:39:02.467Z,53.45
2018-09-04T17:41:31.254Z,54.74
2018-09-04T17:44:00.015Z,55.52
2018-09-04T17:46:28.870Z,55.49
2018-09-04T17:48:57.639Z,56.36
2018-09-04T17:51:26.633Z,56.07
2018-09-04T17:53:55.774Z,56.55
2018-09-04T17:56:24.518Z,57.00
2018-09-04T17:58:53.971Z,58.07
2018-09-04T18:01:24.208Z,58.07
2018-09-04T18:03:53.638Z,58.16
2018-09-04T18:06:23.087Z,58.05
2018-09-04T18:08:52.459Z,58.15
2018-09-04T18:11:21.330Z,59.45
2018-09-04T18:13:50.135Z,59.21
2018-09-04T18:16:18.953Z,59.35
2018-09-04T18:18:47.814Z,59.68
2018-09-04T18:21:16.673Z,60.56
2018-09-04T18:23:46.244Z,60.41
2018-09-04T18:26:15.088Z,60.61
2018-09-04T18:28:45.052Z,61.29
2018-09-04T18:31:13.876Z,61.73
2018-09-04T18:33:43.417Z,61.55
2018-09-04T18:36:12.653Z,62.04
2018-09-04T18:38:41.981Z,62.57
2018-09-04T18:41:10.744Z,62.44
2018-09-04T18:43:39.558Z,62.56
2018-09-04T18:46:08.412Z,63.08
2018-09-04T18:48:37.679Z,64.12
2018-09-04T18:51:08.047Z,63.59
2018-09-04T18:53:37.142Z,63.80
2018-09-04T18:56:06.970Z,64.93
2018-09-04T18:58:36.510Z,65.02
2018-09-04T19:01:06.795Z,65.66
2018-09-04T19:03:35.968Z,66.35
2018-09-04T19:06:05.618Z,66.80
2018-09-04T19:08:35.253Z,66.09
2018-09-04T19:11:04.823Z,66.90
2018-09-04T19:13:33.625Z,67.61
2018-09-04T19:16:02.884Z,67.31
2018-09-04T19:18:31.647Z,67.13
2018-09-04T19:21:00.613Z,67.63
2018-09-04T19:23:30.252Z,67.94
2018-09-04T19:25:59.240Z,67.11
2018-09-04T19:28:28.772Z,67.78
2018-09-04T19:30:57.688Z,67.66
2018-09-04T19:33:26.481Z,68.53
2018-09-04T19:35:55.771Z,68.30
2018-09-04T19:38:25.562Z,69.14
2018-09-04T19:40:55.169Z,69.47
2018-09-04T19:43:23.977Z,68.89
2018-09-04T19:45:52.808Z,69.18
2018-09-04T19:48:21.683Z,69.81
2018-09-04T19:50:50.690Z,69.09
2018-09-04T19:53:19.915Z,69.85
2018-09-04T19:55:49.073Z,69.58
2018-09-04T19:58:18.489Z,69.60
2018-09-04T20:00:48.058Z,70.19
2018-09-04T20:03:16.878Z,70.41
2018-09-04T20:05:45.708Z,69.81
2018-09-04T20:08:14.956Z,70.32
2018-09-04T20:10:44.195Z,69.84
2018-09-04T20:13:13.028Z,69.83
2018-09-04T20:15:41.732Z,70.95
2018-09-04T20:18:10.554Z,71.76
2018-09-04T20:20:39.301Z,71.03
2018-09-04T20:23:09.011Z,72.57
2018-09-04T20:25:38.495Z,73.29
2018-09-04T20:28:08.939Z,72.88
2018-09-04T20:30:38.643Z,73.23
2018-09-04T20:33:07.858Z,72.97
2018-09-04T20:35:37.743Z,72.86
2018-09-04T20:38:07.779Z,73.72
2018-09-04T20:40:37.058Z,72.66
2018-09-04T20:43:06.729Z,72.69
2018-09-04T20:45:35.764Z,72.61
2018-09-04T20:48:05.887Z,73.47
2018-09-04T20:50:35.183Z,73.46
2018-09-04T20:53:04.732Z,73.21
2018-09-04T20:55:33.606Z,73.54
2018-09-04T20:58:14.031Z,74.73
2018-09-04T21:00:54.323Z,73.94
2018-09-04T21:03:34.035Z,74.54
2018-09-04T21:06:13.878Z,74.39
2018-09-04T21:08:53.791Z,74.07
2018-09-04T21:11:22.735Z,73.80
2018-09-04T21:13:51.571Z,74.59
2018-09-04T21:16:21.338Z,74.84
2018-09-04T21:18:51.222Z,74.86
2018-09-04T21:21:20.397Z,75.45
2018-09-04T21:23:50.181Z,75.36
2018-09-04T21:26:19.594Z,75.59
2018-09-04T21:28:49.826Z,75.68
2018-09-04T21:31:18.678Z,76.58
2018-09-04T21:33:49.160Z,76.13
2018-09-04T21:36:18.600Z,76.59
2018-09-04T21:38:48.531Z,75.99
2018-09-04T21:41:17.422Z,75.72
2018-09-04T21:43:46.274Z,76.09
2018-09-04T21:46:15.147Z,76.24
2018-09-04T21:48:43.907Z,75.90
2018-09-04T21:51:12.827Z,75.97
2018-09-04T21:53:41.715Z,76.64
2018-09-04T21:56:10.572Z,76.41
2018-09-04T21:58:40.214Z,75.93
2018-09-04T22:01:09.724Z,76.13
2018-09-04T22:03:38.517Z,76.22
2018-09-04T22:06:07.899Z,77.24
2018-09-04T22:08:38.545Z,76.04
2018-09-04T22:11:07.738Z,75.81
2018-09-04T22:13:37.412Z,76.16
2018-09-04T22:16:07.329Z,76.08
2018-09-04T22:18:36.803Z,76.68
2018-09-04T22:21:07.004Z,76.17
2018-09-04T22:23:36.911Z,76.29
2018-09-04T22:26:05.937Z,76.52
2018-09-04T22:28:36.051Z,76.52
2018-09-04T22:31:05.398Z,76.40
2018-09-04T22:33:34.186Z,75.90
2018-09-04T22:36:03.980Z,76.69
2018-09-04T22:38:33.480Z,76.19
2018-09-04T22:41:02.268Z,76.38
2018-09-04T22:43:31.187Z,76.19
2018-09-04T22:46:00.043Z,76.54
2018-09-04T22:48:29.819Z,76.78
2018-09-04T22:51:03.837Z,77.23
2018-09-04T22:53:32.768Z,76.70
2018-09-04T22:56:01.557Z,77.17
2018-09-04T22:58:31.167Z,77.28
2018-09-04T23:01:00.984Z,77.51
2018-09-04T23:03:29.770Z,77.08
2018-09-04T23:05:58.687Z,77.28
2018-09-04T23:08:28.160Z,78.19
2018-09-04T23:10:57.384Z,77.93
2018-09-04T23:13:26.272Z,77.69
2018-09-04T23:15:55.117Z,78.42
2018-09-04T23:18:24.801Z,78.15
2018-09-04T23:20:53.719Z,79.39
2018-09-04T23:23:23.094Z,79.00
2018-09-04T23:25:51.905Z,78.69
2018-09-04T23:28:21.481Z,78.70
2018-09-04T23:30:50.932Z,78.26
2018-09-04T23:33:19.999Z,78.63
2018-09-04T23:35:49.342Z,78.26
2018-09-04T23:38:20.694Z,77.72
2018-09-04T23:40:49.709Z,77.97
2018-09-04T23:43:18.527Z,77.87
2018-09-04T23:45:47.438Z,77.88
2018-09-04T23:48:16.225Z,77.10
2018-09-04T23:50:45.136Z,77.09
2018-09-04T23:53:14.225Z,77.58
2018-09-04T23:55:43.070Z,77.40
2018-09-04T23:58:12.339Z,78.65
